Great Cacapon, West Virginia
Current Conditions -  °F | °C
As of 4:53 PM on Tuesday 21 Oct 2014 (Local Time) from KMRB Reporting Station
Light Rain Light Rain  
Wind Chill: 54°   Ceiling: 6500
Heat Index: 54°   Visibility: 9mi
Dew Point: 49°   Wind: 6mph
Humidity: 83%   Direction: 300°WNW
Pressure: 29.87"   Gusts: NA
Location:  39.62°N, 78.29°W
Report Text: KMRB 212053Z 30005KT 9SM -RA OVC065 12/09 A2987 RMK AO2 SLP114 P0001 60003 T01220094 53012
Loading
Personal Weather Stations






























Interactive Weather Map
Tropical Storm Tracking
New forecast layout! Learn more

10-Day Weather Forecast

Advertisements
Track Severe Weather on mobile